sensor_id;sensor_type;location;lat;lon;timestamp;P1;durP1;ratioP1;P2;durP2;ratioP2
66559;SDS011;53413;49.878;8.142;2023-03-15T00:01:53;6.37;;;1.30;;
66559;SDS011;53413;49.878;8.142;2023-03-15T00:04:18;6.30;;;1.17;;
66559;SDS011;53413;49.878;8.142;2023-03-15T00:06:45;6.47;;;1.30;;
66559;SDS011;53413;49.878;8.142;2023-03-15T00:09:10;5.87;;;1.43;;
66559;SDS011;53413;49.878;8.142;2023-03-15T00:11:35;7.07;;;1.30;;
66559;SDS011;53413;49.878;8.142;2023-03-15T00:14:01;8.07;;;1.30;;
66559;SDS011;53413;49.878;8.142;2023-03-15T00:16:26;6.50;;;1.50;;
66559;SDS011;53413;49.878;8.142;2023-03-15T00:18:54;5.80;;;1.70;;
66559;SDS011;53413;49.878;8.142;2023-03-15T00:21:20;8.48;;;1.58;;
66559;SDS011;53413;49.878;8.142;2023-03-15T00:23:47;5.13;;;1.58;;
66559;SDS011;53413;49.878;8.142;2023-03-15T00:26:13;5.95;;;1.70;;
66559;SDS011;53413;49.878;8.142;2023-03-15T00:28:40;8.70;;;2.10;;
66559;SDS011;53413;49.878;8.142;2023-03-15T00:31:15;7.10;;;1.80;;
66559;SDS011;53413;49.878;8.142;2023-03-15T00:33:43;5.40;;;1.75;;
66559;SDS011;53413;49.878;8.142;2023-03-15T00:36:09;5.85;;;1.90;;
66559;SDS011;53413;49.878;8.142;2023-03-15T00:38:36;6.75;;;1.63;;
66559;SDS011;53413;49.878;8.142;2023-03-15T00:41:07;8.10;;;2.00;;
66559;SDS011;53413;49.878;8.142;2023-03-15T00:43:34;10.07;;;1.80;;
66559;SDS011;53413;49.878;8.142;2023-03-15T00:45:59;5.15;;;1.80;;
66559;SDS011;53413;49.878;8.142;2023-03-15T00:48:25;6.57;;;1.75;;
66559;SDS011;53413;49.878;8.142;2023-03-15T00:50:59;7.28;;;1.88;;
66559;SDS011;53413;49.878;8.142;2023-03-15T00:53:31;7.67;;;1.70;;
66559;SDS011;53413;49.878;8.142;2023-03-15T00:55:56;6.85;;;1.92;;
66559;SDS011;53413;49.878;8.142;2023-03-15T00:58:22;8.43;;;2.17;;
66559;SDS011;53413;49.878;8.142;2023-03-15T01:00:48;7.88;;;1.92;;
66559;SDS011;53413;49.878;8.142;2023-03-15T01:03:13;8.67;;;2.27;;
66559;SDS011;53413;49.878;8.142;2023-03-15T01:05:38;9.53;;;2.10;;
66559;SDS011;53413;49.878;8.142;2023-03-15T01:08:04;9.55;;;1.98;;
66559;SDS011;53413;49.878;8.142;2023-03-15T01:10:30;10.17;;;2.00;;
66559;SDS011;53413;49.878;8.142;2023-03-15T01:12:58;9.23;;;2.40;;
66559;SDS011;53413;49.878;8.142;2023-03-15T01:15:23;8.73;;;2.20;;
66559;SDS011;53413;49.878;8.142;2023-03-15T01:17:49;7.70;;;2.33;;
66559;SDS011;53413;49.878;8.142;2023-03-15T01:20:14;9.23;;;1.93;;
66559;SDS011;53413;49.878;8.142;2023-03-15T01:22:39;8.30;;;2.00;;
66559;SDS011;53413;49.878;8.142;2023-03-15T01:25:05;7.72;;;2.20;;
66559;SDS011;53413;49.878;8.142;2023-03-15T01:27:31;6.22;;;1.80;;
66559;SDS011;53413;49.878;8.142;2023-03-15T01:29:56;7.83;;;1.77;;
66559;SDS011;53413;49.878;8.142;2023-03-15T01:32:22;7.95;;;1.65;;
66559;SDS011;53413;49.878;8.142;2023-03-15T01:34:47;6.63;;;1.83;;
66559;SDS011;53413;49.878;8.142;2023-03-15T01:37:13;8.20;;;1.83;;
66559;SDS011;53413;49.878;8.142;2023-03-15T01:39:39;7.30;;;1.77;;
66559;SDS011;53413;49.878;8.142;2023-03-15T01:42:05;8.40;;;1.67;;
66559;SDS011;53413;49.878;8.142;2023-03-15T01:47:15;7.57;;;1.80;;
66559;SDS011;53413;49.878;8.142;2023-03-15T01:49:44;8.50;;;1.77;;
66559;SDS011;53413;49.878;8.142;2023-03-15T01:52:18;7.23;;;1.97;;
66559;SDS011;53413;49.878;8.142;2023-03-15T01:54:52;7.28;;;1.65;;
66559;SDS011;53413;49.878;8.142;2023-03-15T01:57:24;8.50;;;1.83;;
66559;SDS011;53413;49.878;8.142;2023-03-15T01:59:57;10.25;;;1.88;;
66559;SDS011;53413;49.878;8.142;2023-03-15T02:02:27;9.55;;;1.77;;
66559;SDS011;53413;49.878;8.142;2023-03-15T02:04:56;6.47;;;1.63;;
66559;SDS011;53413;49.878;8.142;2023-03-15T02:07:31;6.28;;;1.58;;
66559;SDS011;53413;49.878;8.142;2023-03-15T02:12:36;7.23;;;2.00;;
66559;SDS011;53413;49.878;8.142;2023-03-15T02:15:05;6.90;;;1.92;;
66559;SDS011;53413;49.878;8.142;2023-03-15T02:17:35;6.53;;;1.60;;
66559;SDS011;53413;49.878;8.142;2023-03-15T02:20:27;8.43;;;1.80;;
66559;SDS011;53413;49.878;8.142;2023-03-15T02:23:09;7.20;;;1.60;;
66559;SDS011;53413;49.878;8.142;2023-03-15T02:28:36;8.07;;;1.70;;
66559;SDS011;53413;49.878;8.142;2023-03-15T02:31:02;8.43;;;1.92;;
66559;SDS011;53413;49.878;8.142;2023-03-15T02:33:32;7.90;;;1.70;;
66559;SDS011;53413;49.878;8.142;2023-03-15T02:36:08;6.00;;;1.73;;
66559;SDS011;53413;49.878;8.142;2023-03-15T02:38:49;8.63;;;2.03;;
66559;SDS011;53413;49.878;8.142;2023-03-15T02:41:17;10.13;;;1.70;;
66559;SDS011;53413;49.878;8.142;2023-03-15T02:43:48;8.27;;;2.03;;
66559;SDS011;53413;49.878;8.142;2023-03-15T02:46:21;11.53;;;2.20;;
66559;SDS011;53413;49.878;8.142;2023-03-15T02:48:47;6.55;;;1.80;;
66559;SDS011;53413;49.878;8.142;2023-03-15T02:51:20;6.80;;;2.03;;
66559;SDS011;53413;49.878;8.142;2023-03-15T02:53:47;9.35;;;2.00;;
66559;SDS011;53413;49.878;8.142;2023-03-15T02:56:13;11.50;;;2.10;;
66559;SDS011;53413;49.878;8.142;2023-03-15T02:58:39;8.80;;;2.10;;
66559;SDS011;53413;49.878;8.142;2023-03-15T03:01:05;7.85;;;1.88;;
66559;SDS011;53413;49.878;8.142;2023-03-15T03:03:30;7.70;;;1.92;;
66559;SDS011;53413;49.878;8.142;2023-03-15T03:05:56;8.37;;;2.10;;
66559;SDS011;53413;49.878;8.142;2023-03-15T03:08:21;6.27;;;1.90;;
66559;SDS011;53413;49.878;8.142;2023-03-15T03:10:46;7.97;;;1.80;;
66559;SDS011;53413;49.878;8.142;2023-03-15T03:13:12;7.00;;;1.80;;
66559;SDS011;53413;49.878;8.142;2023-03-15T03:15:38;8.02;;;1.90;;
66559;SDS011;53413;49.878;8.142;2023-03-15T03:18:04;9.73;;;1.80;;
66559;SDS011;53413;49.878;8.142;2023-03-15T03:20:29;11.38;;;1.80;;
66559;SDS011;53413;49.878;8.142;2023-03-15T03:22:55;9.68;;;1.60;;
66559;SDS011;53413;49.878;8.142;2023-03-15T03:25:20;7.83;;;1.80;;
66559;SDS011;53413;49.878;8.142;2023-03-15T03:27:46;8.87;;;1.90;;
66559;SDS011;53413;49.878;8.142;2023-03-15T03:30:12;8.73;;;1.75;;
66559;SDS011;53413;49.878;8.142;2023-03-15T03:32:38;8.77;;;1.90;;
66559;SDS011;53413;49.878;8.142;2023-03-15T03:35:05;6.40;;;1.90;;
66559;SDS011;53413;49.878;8.142;2023-03-15T03:37:31;9.05;;;2.03;;
66559;SDS011;53413;49.878;8.142;2023-03-15T03:39:57;11.47;;;2.10;;
66559;SDS011;53413;49.878;8.142;2023-03-15T03:42:22;8.45;;;1.80;;
66559;SDS011;53413;49.878;8.142;2023-03-15T03:44:48;8.70;;;1.98;;
66559;SDS011;53413;49.878;8.142;2023-03-15T03:47:14;9.38;;;2.50;;
66559;SDS011;53413;49.878;8.142;2023-03-15T03:49:40;7.33;;;1.90;;
66559;SDS011;53413;49.878;8.142;2023-03-15T03:52:05;7.73;;;2.03;;
66559;SDS011;53413;49.878;8.142;2023-03-15T03:54:30;5.80;;;1.60;;
66559;SDS011;53413;49.878;8.142;2023-03-15T03:56:56;8.60;;;1.77;;
66559;SDS011;53413;49.878;8.142;2023-03-15T03:59:21;6.67;;;1.60;;
66559;SDS011;53413;49.878;8.142;2023-03-15T04:01:47;7.23;;;1.80;;
66559;SDS011;53413;49.878;8.142;2023-03-15T04:04:12;10.57;;;1.70;;
66559;SDS011;53413;49.878;8.142;2023-03-15T04:06:38;8.85;;;1.60;;
66559;SDS011;53413;49.878;8.142;2023-03-15T04:09:09;6.10;;;2.05;;
66559;SDS011;53413;49.878;8.142;2023-03-15T04:11:39;7.22;;;1.50;;
66559;SDS011;53413;49.878;8.142;2023-03-15T04:14:06;8.13;;;1.67;;
66559;SDS011;53413;49.878;8.142;2023-03-15T04:16:36;8.45;;;1.70;;
66559;SDS011;53413;49.878;8.142;2023-03-15T04:19:02;6.73;;;1.60;;
66559;SDS011;53413;49.878;8.142;2023-03-15T04:21:27;5.97;;;1.50;;
66559;SDS011;53413;49.878;8.142;2023-03-15T04:23:59;8.20;;;1.80;;
66559;SDS011;53413;49.878;8.142;2023-03-15T04:26:26;6.63;;;1.70;;
66559;SDS011;53413;49.878;8.142;2023-03-15T04:28:55;7.55;;;1.80;;
66559;SDS011;53413;49.878;8.142;2023-03-15T04:31:22;9.93;;;1.60;;
66559;SDS011;53413;49.878;8.142;2023-03-15T04:33:52;9.85;;;1.70;;
66559;SDS011;53413;49.878;8.142;2023-03-15T04:36:18;6.27;;;1.77;;
66559;SDS011;53413;49.878;8.142;2023-03-15T04:38:44;9.18;;;1.60;;
66559;SDS011;53413;49.878;8.142;2023-03-15T04:41:13;10.07;;;2.00;;
66559;SDS011;53413;49.878;8.142;2023-03-15T04:43:40;8.27;;;1.70;;
66559;SDS011;53413;49.878;8.142;2023-03-15T04:46:08;8.93;;;1.60;;
66559;SDS011;53413;49.878;8.142;2023-03-15T04:48:34;6.82;;;2.00;;
66559;SDS011;53413;49.878;8.142;2023-03-15T04:51:00;8.40;;;1.70;;
66559;SDS011;53413;49.878;8.142;2023-03-15T04:53:25;8.17;;;2.00;;
66559;SDS011;53413;49.878;8.142;2023-03-15T04:55:51;6.60;;;2.03;;
66559;SDS011;53413;49.878;8.142;2023-03-15T04:58:17;7.82;;;1.70;;
66559;SDS011;53413;49.878;8.142;2023-03-15T05:00:42;6.10;;;1.87;;
66559;SDS011;53413;49.878;8.142;2023-03-15T05:03:08;6.60;;;1.85;;
66559;SDS011;53413;49.878;8.142;2023-03-15T05:05:34;7.50;;;2.00;;
66559;SDS011;53413;49.878;8.142;2023-03-15T05:07:59;6.97;;;1.90;;
66559;SDS011;53413;49.878;8.142;2023-03-15T05:10:25;7.88;;;1.92;;
66559;SDS011;53413;49.878;8.142;2023-03-15T05:12:53;6.85;;;1.92;;
66559;SDS011;53413;49.878;8.142;2023-03-15T05:15:19;7.57;;;2.00;;
66559;SDS011;53413;49.878;8.142;2023-03-15T05:17:44;7.53;;;2.00;;
66559;SDS011;53413;49.878;8.142;2023-03-15T05:20:10;8.40;;;2.10;;
66559;SDS011;53413;49.878;8.142;2023-03-15T05:22:37;8.68;;;2.30;;
66559;SDS011;53413;49.878;8.142;2023-03-15T05:25:04;8.80;;;2.27;;
66559;SDS011;53413;49.878;8.142;2023-03-15T05:27:29;6.68;;;1.90;;
66559;SDS011;53413;49.878;8.142;2023-03-15T05:29:57;9.85;;;2.10;;
66559;SDS011;53413;49.878;8.142;2023-03-15T05:32:23;8.30;;;2.03;;
66559;SDS011;53413;49.878;8.142;2023-03-15T05:34:50;7.40;;;2.30;;
66559;SDS011;53413;49.878;8.142;2023-03-15T05:37:21;9.48;;;1.75;;
66559;SDS011;53413;49.878;8.142;2023-03-15T05:39:47;7.40;;;2.17;;
66559;SDS011;53413;49.878;8.142;2023-03-15T05:42:13;9.13;;;2.57;;
66559;SDS011;53413;49.878;8.142;2023-03-15T05:44:39;9.48;;;2.05;;
66559;SDS011;53413;49.878;8.142;2023-03-15T05:47:04;8.33;;;2.33;;
66559;SDS011;53413;49.878;8.142;2023-03-15T05:49:30;8.43;;;2.40;;
66559;SDS011;53413;49.878;8.142;2023-03-15T05:51:55;8.33;;;2.27;;
66559;SDS011;53413;49.878;8.142;2023-03-15T05:54:21;7.63;;;2.40;;
66559;SDS011;53413;49.878;8.142;2023-03-15T05:56:46;8.70;;;2.60;;
66559;SDS011;53413;49.878;8.142;2023-03-15T05:59:11;7.93;;;2.28;;
66559;SDS011;53413;49.878;8.142;2023-03-15T06:01:37;9.38;;;2.30;;
66559;SDS011;53413;49.878;8.142;2023-03-15T06:04:02;9.17;;;2.20;;
66559;SDS011;53413;49.878;8.142;2023-03-15T06:06:28;10.53;;;2.47;;
66559;SDS011;53413;49.878;8.142;2023-03-15T06:08:53;9.43;;;2.42;;
66559;SDS011;53413;49.878;8.142;2023-03-15T06:11:19;7.47;;;2.10;;
66559;SDS011;53413;49.878;8.142;2023-03-15T06:13:44;8.17;;;2.50;;
66559;SDS011;53413;49.878;8.142;2023-03-15T06:16:09;8.80;;;2.50;;
66559;SDS011;53413;49.878;8.142;2023-03-15T06:18:35;9.07;;;2.63;;
66559;SDS011;53413;49.878;8.142;2023-03-15T06:21:03;8.53;;;2.63;;
66559;SDS011;53413;49.878;8.142;2023-03-15T06:23:31;10.32;;;2.80;;
66559;SDS011;53413;49.878;8.142;2023-03-15T06:25:56;8.50;;;2.53;;
66559;SDS011;53413;49.878;8.142;2023-03-15T06:28:22;10.27;;;2.53;;
66559;SDS011;53413;49.878;8.142;2023-03-15T06:30:47;9.50;;;2.80;;
66559;SDS011;53413;49.878;8.142;2023-03-15T06:33:12;8.03;;;2.83;;
66559;SDS011;53413;49.878;8.142;2023-03-15T06:35:38;8.43;;;2.80;;
66559;SDS011;53413;49.878;8.142;2023-03-15T06:38:03;8.20;;;2.80;;
66559;SDS011;53413;49.878;8.142;2023-03-15T06:40:29;10.87;;;3.50;;
66559;SDS011;53413;49.878;8.142;2023-03-15T06:42:54;11.73;;;3.10;;
66559;SDS011;53413;49.878;8.142;2023-03-15T06:45:19;10.23;;;3.33;;
66559;SDS011;53413;49.878;8.142;2023-03-15T06:47:45;12.82;;;3.55;;
66559;SDS011;53413;49.878;8.142;2023-03-15T06:50:10;12.40;;;3.63;;
66559;SDS011;53413;49.878;8.142;2023-03-15T06:52:35;12.57;;;3.77;;
66559;SDS011;53413;49.878;8.142;2023-03-15T06:55:02;10.60;;;3.20;;
66559;SDS011;53413;49.878;8.142;2023-03-15T06:57:29;9.55;;;3.15;;
66559;SDS011;53413;49.878;8.142;2023-03-15T06:59:55;12.20;;;3.17;;
66559;SDS011;53413;49.878;8.142;2023-03-15T07:02:21;9.70;;;3.50;;
66559;SDS011;53413;49.878;8.142;2023-03-15T07:04:46;9.33;;;2.67;;
66559;SDS011;53413;49.878;8.142;2023-03-15T07:07:12;10.17;;;3.00;;
66559;SDS011;53413;49.878;8.142;2023-03-15T07:09:38;8.77;;;2.90;;
66559;SDS011;53413;49.878;8.142;2023-03-15T07:12:04;13.48;;;3.50;;
66559;SDS011;53413;49.878;8.142;2023-03-15T07:14:29;9.63;;;2.93;;
66559;SDS011;53413;49.878;8.142;2023-03-15T07:16:55;10.38;;;2.85;;
66559;SDS011;53413;49.878;8.142;2023-03-15T07:19:23;9.65;;;2.80;;
66559;SDS011;53413;49.878;8.142;2023-03-15T07:21:49;10.63;;;3.28;;
66559;SDS011;53413;49.878;8.142;2023-03-15T07:24:15;10.47;;;3.33;;
66559;SDS011;53413;49.878;8.142;2023-03-15T07:26:41;8.68;;;2.80;;
66559;SDS011;53413;49.878;8.142;2023-03-15T07:29:06;8.40;;;2.47;;
66559;SDS011;53413;49.878;8.142;2023-03-15T07:31:32;10.23;;;3.20;;
66559;SDS011;53413;49.878;8.142;2023-03-15T07:33:57;9.40;;;3.10;;
66559;SDS011;53413;49.878;8.142;2023-03-15T07:36:22;9.83;;;3.20;;
66559;SDS011;53413;49.878;8.142;2023-03-15T07:38:48;8.93;;;2.80;;
66559;SDS011;53413;49.878;8.142;2023-03-15T07:41:13;10.80;;;2.92;;
66559;SDS011;53413;49.878;8.142;2023-03-15T07:43:39;7.70;;;2.70;;
66559;SDS011;53413;49.878;8.142;2023-03-15T07:46:04;11.80;;;2.80;;
66559;SDS011;53413;49.878;8.142;2023-03-15T07:48:30;11.30;;;3.25;;
66559;SDS011;53413;49.878;8.142;2023-03-15T07:50:56;11.40;;;3.03;;
66559;SDS011;53413;49.878;8.142;2023-03-15T07:53:21;9.57;;;3.03;;
66559;SDS011;53413;49.878;8.142;2023-03-15T07:55:47;9.05;;;3.10;;
66559;SDS011;53413;49.878;8.142;2023-03-15T07:58:12;13.03;;;3.27;;
66559;SDS011;53413;49.878;8.142;2023-03-15T08:00:38;9.90;;;3.23;;
66559;SDS011;53413;49.878;8.142;2023-03-15T08:03:03;10.73;;;3.50;;
66559;SDS011;53413;49.878;8.142;2023-03-15T08:05:32;8.48;;;3.53;;
66559;SDS011;53413;49.878;8.142;2023-03-15T08:07:58;10.07;;;3.58;;
66559;SDS011;53413;49.878;8.142;2023-03-15T08:10:25;8.00;;;3.10;;
66559;SDS011;53413;49.878;8.142;2023-03-15T08:12:50;10.13;;;3.37;;
66559;SDS011;53413;49.878;8.142;2023-03-15T08:15:16;9.10;;;3.30;;
66559;SDS011;53413;49.878;8.142;2023-03-15T08:17:43;10.57;;;3.70;;
66559;SDS011;53413;49.878;8.142;2023-03-15T08:20:09;11.97;;;3.57;;
66559;SDS011;53413;49.878;8.142;2023-03-15T08:22:36;11.52;;;3.88;;
66559;SDS011;53413;49.878;8.142;2023-03-15T08:25:02;11.13;;;3.92;;
66559;SDS011;53413;49.878;8.142;2023-03-15T08:27:28;9.93;;;3.30;;
66559;SDS011;53413;49.878;8.142;2023-03-15T08:29:53;13.10;;;3.63;;
66559;SDS011;53413;49.878;8.142;2023-03-15T08:32:19;11.27;;;3.60;;
66559;SDS011;53413;49.878;8.142;2023-03-15T08:34:45;10.07;;;3.60;;
66559;SDS011;53413;49.878;8.142;2023-03-15T08:37:10;10.55;;;3.60;;
66559;SDS011;53413;49.878;8.142;2023-03-15T08:39:39;10.57;;;3.50;;
66559;SDS011;53413;49.878;8.142;2023-03-15T08:42:05;12.00;;;4.05;;
66559;SDS011;53413;49.878;8.142;2023-03-15T08:44:31;10.88;;;4.00;;
66559;SDS011;53413;49.878;8.142;2023-03-15T08:46:57;10.90;;;3.83;;
66559;SDS011;53413;49.878;8.142;2023-03-15T08:49:22;10.60;;;3.63;;
66559;SDS011;53413;49.878;8.142;2023-03-15T08:51:48;12.47;;;4.00;;
66559;SDS011;53413;49.878;8.142;2023-03-15T08:54:13;9.97;;;3.80;;
66559;SDS011;53413;49.878;8.142;2023-03-15T08:56:39;10.57;;;3.83;;
66559;SDS011;53413;49.878;8.142;2023-03-15T08:59:05;11.45;;;4.28;;
66559;SDS011;53413;49.878;8.142;2023-03-15T09:01:31;11.50;;;3.97;;
66559;SDS011;53413;49.878;8.142;2023-03-15T09:03:57;11.37;;;4.10;;
66559;SDS011;53413;49.878;8.142;2023-03-15T09:06:22;11.02;;;4.10;;
66559;SDS011;53413;49.878;8.142;2023-03-15T09:08:48;9.97;;;3.70;;
66559;SDS011;53413;49.878;8.142;2023-03-15T09:11:13;11.80;;;4.17;;
66559;SDS011;53413;49.878;8.142;2023-03-15T09:13:38;12.23;;;4.50;;
66559;SDS011;53413;49.878;8.142;2023-03-15T09:16:04;12.33;;;4.23;;
66559;SDS011;53413;49.878;8.142;2023-03-15T09:18:30;11.33;;;4.00;;
66559;SDS011;53413;49.878;8.142;2023-03-15T09:20:55;10.32;;;4.15;;
66559;SDS011;53413;49.878;8.142;2023-03-15T09:23:21;11.73;;;4.40;;
66559;SDS011;53413;49.878;8.142;2023-03-15T09:25:46;10.43;;;4.17;;
66559;SDS011;53413;49.878;8.142;2023-03-15T09:28:12;11.00;;;4.50;;
66559;SDS011;53413;49.878;8.142;2023-03-15T09:30:37;10.47;;;3.83;;
66559;SDS011;53413;49.878;8.142;2023-03-15T09:33:05;9.15;;;3.55;;
66559;SDS011;53413;49.878;8.142;2023-03-15T09:35:31;9.83;;;3.47;;
66559;SDS011;53413;49.878;8.142;2023-03-15T09:37:56;8.80;;;3.00;;
66559;SDS011;53413;49.878;8.142;2023-03-15T09:56:39;6.88;;;2.92;;
66559;SDS011;53413;49.878;8.142;2023-03-15T09:59:32;6.17;;;2.70;;
66559;SDS011;53413;49.878;8.142;2023-03-15T10:02:03;6.95;;;2.90;;
66559;SDS011;53413;49.878;8.142;2023-03-15T10:04:43;6.57;;;2.78;;
66559;SDS011;53413;49.878;8.142;2023-03-15T10:07:12;6.13;;;2.90;;
66559;SDS011;53413;49.878;8.142;2023-03-15T10:09:40;6.55;;;3.10;;
66559;SDS011;53413;49.878;8.142;2023-03-15T10:12:08;6.20;;;2.80;;
66559;SDS011;53413;49.878;8.142;2023-03-15T10:17:40;6.78;;;2.75;;
66559;SDS011;53413;49.878;8.142;2023-03-15T10:20:35;8.65;;;3.03;;
66559;SDS011;53413;49.878;8.142;2023-03-15T10:23:52;7.70;;;2.80;;
66559;SDS011;53413;49.878;8.142;2023-03-15T10:26:05;6.83;;;2.70;;
66559;SDS011;53413;49.878;8.142;2023-03-15T10:28:36;7.35;;;2.80;;
66559;SDS011;53413;49.878;8.142;2023-03-15T10:31:13;5.80;;;2.63;;
66559;SDS011;53413;49.878;8.142;2023-03-15T10:33:42;6.75;;;2.95;;
66559;SDS011;53413;49.878;8.142;2023-03-15T10:36:12;7.07;;;2.95;;
66559;SDS011;53413;49.878;8.142;2023-03-15T10:38:40;7.30;;;2.90;;
66559;SDS011;53413;49.878;8.142;2023-03-15T10:41:06;7.80;;;2.80;;
66559;SDS011;53413;49.878;8.142;2023-03-15T10:43:33;5.72;;;2.70;;
66559;SDS011;53413;49.878;8.142;2023-03-15T10:48:34;5.97;;;2.70;;
66559;SDS011;53413;49.878;8.142;2023-03-15T10:51:06;6.72;;;2.60;;
66559;SDS011;53413;49.878;8.142;2023-03-15T10:56:27;5.43;;;2.70;;
66559;SDS011;53413;49.878;8.142;2023-03-15T10:58:57;5.80;;;2.60;;
66559;SDS011;53413;49.878;8.142;2023-03-15T11:01:30;6.35;;;2.30;;
66559;SDS011;53413;49.878;8.142;2023-03-15T11:03:59;5.00;;;2.30;;
66559;SDS011;53413;49.878;8.142;2023-03-15T11:06:41;4.70;;;2.10;;
66559;SDS011;53413;49.878;8.142;2023-03-15T11:09:18;5.15;;;2.00;;
66559;SDS011;53413;49.878;8.142;2023-03-15T11:11:47;4.43;;;1.73;;
66559;SDS011;53413;49.878;8.142;2023-03-15T11:14:15;4.85;;;2.20;;
66559;SDS011;53413;49.878;8.142;2023-03-15T11:16:41;4.35;;;1.92;;
66559;SDS011;53413;49.878;8.142;2023-03-15T11:19:14;4.60;;;2.10;;
66559;SDS011;53413;49.878;8.142;2023-03-15T11:21:41;4.22;;;2.00;;
66559;SDS011;53413;49.878;8.142;2023-03-15T11:24:09;3.90;;;1.80;;
66559;SDS011;53413;49.878;8.142;2023-03-15T11:26:46;4.35;;;1.48;;
66559;SDS011;53413;49.878;8.142;2023-03-15T11:31:54;3.85;;;1.33;;
66559;SDS011;53413;49.878;8.142;2023-03-15T11:34:23;3.13;;;1.13;;
66559;SDS011;53413;49.878;8.142;2023-03-15T11:37:15;3.47;;;1.30;;
66559;SDS011;53413;49.878;8.142;2023-03-15T11:45:58;3.38;;;1.40;;
66559;SDS011;53413;49.878;8.142;2023-03-15T11:48:35;3.33;;;1.20;;
66559;SDS011;53413;49.878;8.142;2023-03-15T11:51:07;3.70;;;1.47;;
66559;SDS011;53413;49.878;8.142;2023-03-15T11:53:37;3.97;;;1.80;;
66559;SDS011;53413;49.878;8.142;2023-03-15T11:56:26;4.40;;;1.50;;
66559;SDS011;53413;49.878;8.142;2023-03-15T11:59:11;4.32;;;1.67;;
66559;SDS011;53413;49.878;8.142;2023-03-15T12:01:49;4.25;;;1.73;;
66559;SDS011;53413;49.878;8.142;2023-03-15T12:06:56;4.50;;;1.90;;
66559;SDS011;53413;49.878;8.142;2023-03-15T12:12:02;3.95;;;1.55;;
66559;SDS011;53413;49.878;8.142;2023-03-15T12:20:21;4.28;;;1.52;;
66559;SDS011;53413;49.878;8.142;2023-03-15T12:25:43;4.13;;;1.58;;
66559;SDS011;53413;49.878;8.142;2023-03-15T12:28:43;4.35;;;1.77;;
66559;SDS011;53413;49.878;8.142;2023-03-15T12:32:13;4.47;;;2.00;;
66559;SDS011;53413;49.878;8.142;2023-03-15T12:34:44;4.20;;;1.80;;
66559;SDS011;53413;49.878;8.142;2023-03-15T12:39:51;5.10;;;2.20;;
66559;SDS011;53413;49.878;8.142;2023-03-15T12:48:13;5.18;;;2.35;;
66559;SDS011;53413;49.878;8.142;2023-03-15T12:55:50;5.18;;;2.35;;
66559;SDS011;53413;49.878;8.142;2023-03-15T12:58:17;5.87;;;2.53;;
66559;SDS011;53413;49.878;8.142;2023-03-15T13:00:45;7.03;;;2.42;;
66559;SDS011;53413;49.878;8.142;2023-03-15T13:03:18;5.10;;;2.40;;
66559;SDS011;53413;49.878;8.142;2023-03-15T13:14:20;4.70;;;1.85;;
66559;SDS011;53413;49.878;8.142;2023-03-15T13:19:41;4.40;;;1.55;;
66559;SDS011;53413;49.878;8.142;2023-03-15T13:28:13;5.13;;;1.60;;
66559;SDS011;53413;49.878;8.142;2023-03-15T13:30:46;3.78;;;1.52;;
66559;SDS011;53413;49.878;8.142;2023-03-15T13:33:23;4.18;;;1.65;;
66559;SDS011;53413;49.878;8.142;2023-03-15T13:41:04;4.10;;;1.83;;
66559;SDS011;53413;49.878;8.142;2023-03-15T13:43:40;3.90;;;1.60;;
66559;SDS011;53413;49.878;8.142;2023-03-15T13:46:06;3.88;;;1.60;;
66559;SDS011;53413;49.878;8.142;2023-03-15T13:48:33;3.67;;;1.60;;
66559;SDS011;53413;49.878;8.142;2023-03-15T13:51:45;4.47;;;1.67;;
66559;SDS011;53413;49.878;8.142;2023-03-15T13:53:53;3.83;;;1.40;;
66559;SDS011;53413;49.878;8.142;2023-03-15T13:56:26;3.53;;;1.13;;
66559;SDS011;53413;49.878;8.142;2023-03-15T13:58:54;3.00;;;1.17;;
66559;SDS011;53413;49.878;8.142;2023-03-15T14:01:21;4.17;;;1.40;;
66559;SDS011;53413;49.878;8.142;2023-03-15T14:03:51;4.35;;;1.40;;
66559;SDS011;53413;49.878;8.142;2023-03-15T14:06:22;4.45;;;1.40;;
66559;SDS011;53413;49.878;8.142;2023-03-15T14:08:53;4.13;;;1.40;;
66559;SDS011;53413;49.878;8.142;2023-03-15T14:11:36;3.75;;;1.40;;
66559;SDS011;53413;49.878;8.142;2023-03-15T14:14:18;3.53;;;1.50;;
66559;SDS011;53413;49.878;8.142;2023-03-15T14:16:47;4.20;;;1.30;;
66559;SDS011;53413;49.878;8.142;2023-03-15T14:19:32;3.40;;;1.23;;
66559;SDS011;53413;49.878;8.142;2023-03-15T14:22:01;3.70;;;1.40;;
66559;SDS011;53413;49.878;8.142;2023-03-15T14:24:35;4.10;;;1.60;;
66559;SDS011;53413;49.878;8.142;2023-03-15T14:27:19;3.97;;;1.77;;
66559;SDS011;53413;49.878;8.142;2023-03-15T14:29:53;3.80;;;1.60;;
66559;SDS011;53413;49.878;8.142;2023-03-15T14:32:25;4.15;;;1.60;;
66559;SDS011;53413;49.878;8.142;2023-03-15T14:35:17;4.03;;;1.85;;
66559;SDS011;53413;49.878;8.142;2023-03-15T14:37:44;3.58;;;1.60;;
66559;SDS011;53413;49.878;8.142;2023-03-15T14:42:39;5.22;;;2.10;;
66559;SDS011;53413;49.878;8.142;2023-03-15T14:45:05;5.13;;;2.00;;
66559;SDS011;53413;49.878;8.142;2023-03-15T14:47:31;4.27;;;1.80;;
66559;SDS011;53413;49.878;8.142;2023-03-15T14:49:56;4.50;;;1.90;;
66559;SDS011;53413;49.878;8.142;2023-03-15T14:52:22;5.10;;;1.95;;
66559;SDS011;53413;49.878;8.142;2023-03-15T14:54:50;5.23;;;1.70;;
66559;SDS011;53413;49.878;8.142;2023-03-15T14:57:15;4.35;;;1.65;;
66559;SDS011;53413;49.878;8.142;2023-03-15T14:59:41;5.13;;;1.80;;
66559;SDS011;53413;49.878;8.142;2023-03-15T15:02:08;5.43;;;2.10;;
66559;SDS011;53413;49.878;8.142;2023-03-15T15:04:40;3.90;;;1.77;;
66559;SDS011;53413;49.878;8.142;2023-03-15T15:07:09;3.78;;;1.50;;
66559;SDS011;53413;49.878;8.142;2023-03-15T15:09:36;3.92;;;1.50;;
66559;SDS011;53413;49.878;8.142;2023-03-15T15:12:01;4.23;;;1.60;;
66559;SDS011;53413;49.878;8.142;2023-03-15T15:14:27;4.40;;;1.60;;
66559;SDS011;53413;49.878;8.142;2023-03-15T15:16:52;5.17;;;1.80;;
66559;SDS011;53413;49.878;8.142;2023-03-15T15:19:18;3.85;;;1.70;;
66559;SDS011;53413;49.878;8.142;2023-03-15T15:21:43;3.77;;;1.50;;
66559;SDS011;53413;49.878;8.142;2023-03-15T15:24:10;4.77;;;1.80;;
66559;SDS011;53413;49.878;8.142;2023-03-15T15:26:39;4.40;;;1.70;;
66559;SDS011;53413;49.878;8.142;2023-03-15T15:29:05;5.50;;;1.60;;
66559;SDS011;53413;49.878;8.142;2023-03-15T15:31:30;4.13;;;1.50;;
66559;SDS011;53413;49.878;8.142;2023-03-15T15:33:58;3.88;;;1.35;;
66559;SDS011;53413;49.878;8.142;2023-03-15T15:36:25;4.50;;;1.63;;
66559;SDS011;53413;49.878;8.142;2023-03-15T15:38:53;3.30;;;1.30;;
66559;SDS011;53413;49.878;8.142;2023-03-15T15:41:28;3.60;;;1.30;;
66559;SDS011;53413;49.878;8.142;2023-03-15T15:43:55;3.30;;;1.13;;
66559;SDS011;53413;49.878;8.142;2023-03-15T15:46:23;3.65;;;1.50;;
66559;SDS011;53413;49.878;8.142;2023-03-15T15:48:49;3.27;;;1.27;;
66559;SDS011;53413;49.878;8.142;2023-03-15T15:51:20;3.60;;;1.40;;
66559;SDS011;53413;49.878;8.142;2023-03-15T15:53:50;4.13;;;1.33;;
66559;SDS011;53413;49.878;8.142;2023-03-15T15:56:16;4.65;;;1.40;;
66559;SDS011;53413;49.878;8.142;2023-03-15T15:58:42;4.03;;;1.53;;
66559;SDS011;53413;49.878;8.142;2023-03-15T16:01:12;4.93;;;1.70;;
66559;SDS011;53413;49.878;8.142;2023-03-15T16:03:38;3.85;;;1.35;;
66559;SDS011;53413;49.878;8.142;2023-03-15T16:06:04;6.60;;;1.40;;
66559;SDS011;53413;49.878;8.142;2023-03-15T16:08:31;4.32;;;1.40;;
66559;SDS011;53413;49.878;8.142;2023-03-15T16:11:01;3.45;;;1.40;;
66559;SDS011;53413;49.878;8.142;2023-03-15T16:13:26;4.13;;;1.17;;
66559;SDS011;53413;49.878;8.142;2023-03-15T16:15:52;3.60;;;1.43;;
66559;SDS011;53413;49.878;8.142;2023-03-15T16:18:17;3.43;;;1.33;;
66559;SDS011;53413;49.878;8.142;2023-03-15T16:20:43;3.37;;;1.20;;
66559;SDS011;53413;49.878;8.142;2023-03-15T16:23:12;4.30;;;1.50;;
66559;SDS011;53413;49.878;8.142;2023-03-15T16:25:42;4.53;;;1.40;;
66559;SDS011;53413;49.878;8.142;2023-03-15T16:28:11;5.13;;;1.40;;